Temp: 17.5°C   Baro: 1023.9mb
  Wind: 2.9mph   Dir: N (356°)
  Rain: 7.0mm (0.0mm/hr)
  Solar: 51W/m2  Hum: 65%

Historic data

Bath Spa Weather Station Historical Data
Daily Summary for August 06, 2022 Units:  Metric    English   Both
Daily Weekly Monthly Yearly Custom
  High: Low: Average:
Temperature: 24.8 °C 8.4 °C 16.7 °C
Dew Point: 12.8 °C 5.8 °C 9.5 °C
Humidity: 84% 40.6% 64%
Wind Speed: 11.9km/h 0km/h 3.5km/h
Wind Gust: 20.9km/h - -
Wind- - SW
Pressure: 1030.7 hPa 1027.7 hPa -
Precipitation: 0 mm    
Historical Graphs
 
 
Tabular Data for August 06, 2022
Time Temperature Dew Point Pressure Wind Wind Speed Wind Gust Humidity Rainfall Rate (Hourly) solar
00:09 14.6 °C 8.7 °C 1028.7 hPa North 2.3 km/h 9.7 km/h 68% 0 mm 0 W/m2
00:14 14.4 °C 8.6 °C 1028.7 hPa North 2.9 km/h 9.7 km/h 68% 0 mm 0 W/m2
00:19 14.4 °C 8.7 °C 1028.7 hPa North 1.6 km/h 8 km/h 68.2% 0 mm 0 W/m2
00:24 14.3 °C 8.6 °C 1029 hPa NNE 3.2 km/h 8 km/h 68% 0 mm 0 W/m2
00:29 14.3 °C 8.5 °C 1029 hPa NE 4 km/h 14.5 km/h 68% 0 mm 0 W/m2
00:34 14.3 °C 8.5 °C 1029 hPa NNE 4.8 km/h 9.7 km/h 68% 0 mm 0 W/m2
00:39 14.3 °C 8.5 °C 1029 hPa NE 4 km/h 11.3 km/h 68% 0 mm 0 W/m2
00:44 14.3 °C 8.5 °C 1029 hPa NNE 3.1 km/h 9.7 km/h 68% 0 mm 0 W/m2
00:49 14.2 °C 8.4 °C 1029 hPa NNE 0.3 km/h 3.2 km/h 68% 0 mm 0 W/m2
00:54 14.1 °C 8.3 °C 1029 hPa NNE 1.4 km/h 4.8 km/h 68% 0 mm 0 W/m2
00:59 14 °C 8.2 °C 1029 hPa NNE 0.6 km/h 4.8 km/h 68% 0 mm 0 W/m2
01:03 13.8 °C 8.2 °C 1029 hPa NNE 0.8 km/h 3.2 km/h 68.5% 0 mm 0 W/m2
01:09 13.7 °C 8.1 °C 1029 hPa NNE 0.8 km/h 3.2 km/h 69% 0 mm 0 W/m2
01:14 13.6 °C 8.1 °C 1029 hPa NNE 1.3 km/h 4.8 km/h 69.4% 0 mm 0 W/m2
01:19 13.4 °C 8 °C 1029 hPa NNE 1.8 km/h 4.8 km/h 70% 0 mm 0 W/m2
01:24 13.2 °C 8.2 °C 1029 hPa NNE 1.4 km/h 4.8 km/h 71.4% 0 mm 0 W/m2
01:29 13.1 °C 8.3 °C 1029.3 hPa NNE 1.4 km/h 4.8 km/h 72.4% 0 mm 0 W/m2
01:34 12.9 °C 8.2 °C 1029.3 hPa NNE 0.6 km/h 3.2 km/h 73% 0 mm 0 W/m2
01:39 12.8 °C 8.3 °C 1029.3 hPa NNE 0.6 km/h 3.2 km/h 74% 0 mm 0 W/m2
01:44 12.7 °C 8.3 °C 1029.3 hPa NNE 0.8 km/h 3.2 km/h 74.6% 0 mm 0 W/m2
01:49 12.6 °C 8.2 °C 1029.3 hPa NNE 2.6 km/h 4.8 km/h 75% 0 mm 0 W/m2
01:54 12.3 °C 8.2 °C 1029.3 hPa NNE 1.4 km/h 3.2 km/h 75.6% 0 mm 0 W/m2
01:59 12.3 °C 8.2 °C 1029.3 hPa NNE 1.3 km/h 3.2 km/h 76% 0 mm 0 W/m2
02:04 12.2 °C 8.1 °C 1029.3 hPa NNE 0.3 km/h 1.6 km/h 76% 0 mm 0 W/m2
02:08 12.1 °C 8.1 °C 1029.3 hPa NNE 0.3 km/h 1.6 km/h 76.5% 0 mm 0 W/m2
02:14 11.9 °C 8.1 °C 1029.3 hPa Calm   1.6 km/h 77% 0 mm 0 W/m2
02:19 11.9 °C 8 °C 1029.3 hPa Calm   1.6 km/h 77% 0 mm 0 W/m2
02:24 11.8 °C 7.9 °C 1029.3 hPa NNE 1.3 km/h 3.2 km/h 77% 0 mm 0 W/m2
02:29 11.8 °C 7.9 °C 1029.3 hPa Calm   1.6 km/h 77% 0 mm 0 W/m2
02:34 11.7 °C 7.8 °C 1029.3 hPa Calm   1.6 km/h 77% 0 mm 0 W/m2
02:39 11.7 °C 7.7 °C 1029.3 hPa Calm   1.6 km/h 77% 0 mm 0 W/m2
02:44 11.6 °C 7.7 °C 1029.3 hPa Calm   1.6 km/h 77% 0 mm 0 W/m2
02:49 11.5 °C 7.6 °C 1029.3 hPa Calm     77% 0 mm 0 W/m2
02:54 11.4 °C 7.5 °C 1029.3 hPa Calm   1.6 km/h 77% 0 mm 0 W/m2
02:59 11.4 °C 7.5 °C 1029.3 hPa Calm     77% 0 mm 0 W/m2
03:04 11.3 °C 7.4 °C 1029.3 hPa Calm     77.2% 0 mm 0 W/m2
03:09 11.2 °C 7.6 °C 1029.3 hPa Calm     78% 0 mm 0 W/m2
03:14 11.1 °C 7.4 °C 1029.3 hPa Calm     77.8% 0 mm 0 W/m2
03:19 10.9 °C 7.2 °C 1029.3 hPa Calm     78% 0 mm 0 W/m2
03:24 10.9 °C 7.2 °C 1029.3 hPa Calm     78% 0 mm 0 W/m2
03:29 10.8 °C 7.1 °C 1029.3 hPa Calm     78% 0 mm 0 W/m2
03:34 10.9 °C 7.2 °C 1029.3 hPa Calm     78% 0 mm 0 W/m2
03:39 10.8 °C 7.1 °C 1029.3 hPa Calm     78% 0 mm 0 W/m2
03:44 10.6 °C 6.9 °C 1029.3 hPa Calm     78% 0 mm 0 W/m2
03:49 10.4 °C 6.7 °C 1029.3 hPa Calm     78% 0 mm 0 W/m2
03:54 10.4 °C 6.7 °C 1029.7 hPa Calm     78% 0 mm 0 W/m2
03:59 10.3 °C 6.6 °C 1029.7 hPa Calm     78% 0 mm 0 W/m2
04:04 10.2 °C 6.5 °C 1029.7 hPa Calm     78% 0 mm 0 W/m2
04:09 10.2 °C 6.4 °C 1029.7 hPa Calm     78% 0 mm 0 W/m2
04:14 10.1 °C 6.4 °C 1029.7 hPa Calm     78.2% 0 mm 0 W/m2
04:19 9.9 °C 6.4 °C 1029.7 hPa Calm     79% 0 mm 0 W/m2
04:24 9.8 °C 6.3 °C 1029.7 hPa Calm     79% 0 mm 0 W/m2
04:29 9.8 °C 6.3 °C 1029.7 hPa Calm     79% 0 mm 0 W/m2
04:34 9.7 °C 6.4 °C 1029.7 hPa Calm     80% 0 mm 0 W/m2
04:39 9.7 °C 6.3 °C 1029.7 hPa Calm     80% 0 mm 0 W/m2
04:44 9.5 °C 6.2 °C 1029.7 hPa Calm     80% 0 mm 0 W/m2
04:49 9.3 °C 6.1 °C 1029.7 hPa Calm     80.2% 0 mm 0 W/m2
04:54 9.3 °C 6.1 °C 1029.7 hPa Calm     80.4% 0 mm 0 W/m2
04:59 9.2 °C 6.2 °C 1029.7 hPa Calm     81% 0 mm 0 W/m2
05:04 9.2 °C 6.1 °C 1029.7 hPa Calm     81% 0 mm 0 W/m2
05:09 9.2 °C 6.1 °C 1029.7 hPa Calm     81% 0 mm 0 W/m2
05:14 9.1 °C 6 °C 1029.7 hPa Calm     81% 0 mm 0 W/m2
05:19 9.1 °C 6.1 °C 1029.7 hPa Calm     81.4% 0 mm 0 W/m2
05:24 8.9 °C 5.9 °C 1029.7 hPa Calm     81.6% 0 mm 0 W/m2
05:29 8.9 °C 6 °C 1029.7 hPa Calm     82% 0 mm 0 W/m2
05:34 8.9 °C 6 °C 1029.7 hPa Calm     82% 0 mm 0 W/m2
05:39 8.8 °C 5.9 °C 1029.7 hPa Calm     82% 0 mm 0 W/m2
05:44 8.7 °C 5.9 °C 1030 hPa Calm     82.4% 0 mm 5 W/m2
05:49 8.7 °C 6 °C 1030 hPa Calm     83% 0 mm 7 W/m2
05:54 8.7 °C 6 °C 1030 hPa Calm     83% 0 mm 7 W/m2
05:59 8.7 °C 5.9 °C 1030 hPa Calm     83% 0 mm 9 W/m2
06:04 8.6 °C 5.9 °C 1030 hPa Calm     83% 0 mm 12 W/m2
06:09 8.5 °C 5.8 °C 1030 hPa Calm     83% 0 mm 14 W/m2
06:14 8.4 °C 5.8 °C 1030 hPa Calm     83.4% 0 mm 16 W/m2
06:19 8.4 °C 5.9 °C 1030 hPa Calm     84% 0 mm 18 W/m2
06:24 8.4 °C 5.9 °C 1030 hPa Calm     84% 0 mm 18 W/m2
06:29 8.4 °C 5.9 °C 1030 hPa Calm     84% 0 mm 19 W/m2
06:34 8.4 °C 5.9 °C 1030.4 hPa Calm     84% 0 mm 23 W/m2
06:39 8.4 °C 5.9 °C 1030.4 hPa Calm     84% 0 mm 25 W/m2
06:44 8.5 °C 6 °C 1030.4 hPa Calm     84% 0 mm 26 W/m2
06:49 8.6 °C 6 °C 1030.4 hPa Calm     84% 0 mm 28 W/m2
06:54 8.6 °C 6 °C 1030.4 hPa Calm     84% 0 mm 32 W/m2
06:59 8.7 °C 6.1 °C 1030.4 hPa Calm     84% 0 mm 39 W/m2
07:04 8.8 °C 6.3 °C 1030.4 hPa Calm     84% 0 mm 47 W/m2
07:09 9.1 °C 6.5 °C 1030.7 hPa Calm     84% 0 mm 60 W/m2
07:14 9.2 °C 6.6 °C 1030.7 hPa Calm     84% 0 mm 74 W/m2
07:19 9.3 °C 6.6 °C 1030.4 hPa Calm     83% 0 mm 90 W/m2
07:24 9.4 °C 6.8 °C 1030.7 hPa Calm     83% 0 mm 107 W/m2
07:29 9.7 °C 6.9 °C 1030.7 hPa Calm     83% 0 mm 114 W/m2
07:34 9.8 °C 7.1 °C 1030.7 hPa Calm     83% 0 mm 109 W/m2
07:39 10.1 °C 7.2 °C 1030.7 hPa Calm     82% 0 mm 134 W/m2
07:44 10.2 °C 7.3 °C 1030.7 hPa Calm     82% 0 mm 156 W/m2
07:49 10.4 °C 7.4 °C 1030.7 hPa Calm     81.3% 0 mm 178 W/m2
07:54 10.7 °C 7.6 °C 1030.7 hPa Calm     81% 0 mm 188 W/m2
07:59 10.9 °C 7.7 °C 1030.7 hPa NNE 1.3 km/h 3.2 km/h 80.2% 0 mm 200 W/m2
08:04 11.2 °C 7.7 °C 1030.7 hPa North 1.9 km/h 3.2 km/h 79% 0 mm 218 W/m2
08:09 11.5 °C 7.8 °C 1030.7 hPa NNW 1.4 km/h 4.8 km/h 77.8% 0 mm 236 W/m2
08:14 11.8 °C 7.8 °C 1030.7 hPa NNW 1.9 km/h 4.8 km/h 76.6% 0 mm 251 W/m2
08:19 11.9 °C 7.7 °C 1030.7 hPa NNW 0.6 km/h 4.8 km/h 75.8% 0 mm 267 W/m2
08:24 12.1 °C 7.8 °C 1030.7 hPa NNW 1.6 km/h 4.8 km/h 75% 0 mm 279 W/m2
08:29 12.4 °C 8.1 °C 1030.7 hPa NNW 0.6 km/h 3.2 km/h 74.4% 0 mm 301 W/m2
08:34 12.8 °C 8.2 °C 1030.7 hPa NNW 1.8 km/h 4.8 km/h 73.2% 0 mm 318 W/m2
08:39 13.1 °C 8.2 °C 1030.7 hPa NW 2.1 km/h 4.8 km/h 72.2% 0 mm 332 W/m2
08:44 13.4 °C 8.5 °C 1030.7 hPa NW 1.4 km/h 4.8 km/h 72% 0 mm 352 W/m2
08:49 13.8 °C 8.7 °C 1030.7 hPa NW 2.3 km/h 4.8 km/h 71.6% 0 mm 367 W/m2
08:54 13.9 °C 8.8 °C 1030.7 hPa NW 1.6 km/h 4.8 km/h 71% 0 mm 380 W/m2
08:59 14.2 °C 9 °C 1030.7 hPa NW 1.6 km/h 4.8 km/h 71% 0 mm 394 W/m2
09:04 14.6 °C 9.3 °C 1030.7 hPa NW 2.6 km/h 6.4 km/h 70.4% 0 mm 406 W/m2
09:09 14.9 °C 9.5 °C 1030.7 hPa NW 1.4 km/h 6.4 km/h 70% 0 mm 418 W/m2
09:14 15.2 °C 9.8 °C 1030.7 hPa NW 1.3 km/h 3.2 km/h 70% 0 mm 436 W/m2
09:19 15.6 °C 9.9 °C 1030.7 hPa WSW 2.7 km/h 6.4 km/h 69% 0 mm 448 W/m2
09:24 15.8 °C 9.9 °C 1030.7 hPa WSW 2.6 km/h 4.8 km/h 68.2% 0 mm 461 W/m2
09:29 16.1 °C 10.2 °C 1030.7 hPa WSW 1.8 km/h 6.4 km/h 68% 0 mm 476 W/m2
09:34 16.5 °C 10.3 °C 1030.7 hPa WNW 4.5 km/h 9.7 km/h 67% 0 mm 487 W/m2
09:39 16.3 °C 9.9 °C 1030.7 hPa SSE 5.5 km/h 9.7 km/h 66% 0 mm 499 W/m2
09:44 16.2 °C 10.2 °C 1030.7 hPa SE 6 km/h 9.7 km/h 67.6% 0 mm 512 W/m2
09:49 16.5 °C 10.6 °C 1030.7 hPa SE 4.3 km/h 9.7 km/h 67.8% 0 mm 526 W/m2
09:54 16.9 °C 10.7 °C 1030.7 hPa SSE 4 km/h 11.3 km/h 66.6% 0 mm 538 W/m2
09:59 16.8 °C 10.3 °C 1030.7 hPa SSE 5.6 km/h 11.3 km/h 65.6% 0 mm 540 W/m2
10:04 16.8 °C 10.4 °C 1030.7 hPa SSE 4.2 km/h 11.3 km/h 66.2% 0 mm 547 W/m2
10:09 17.2 °C 10.7 °C 1030.7 hPa SSE 2.9 km/h 6.4 km/h 65.8% 0 mm 559 W/m2
10:14 17.3 °C 10.3 °C 1030.7 hPa SSE 2.4 km/h 8 km/h 64% 0 mm 578 W/m2
10:19 17.4 °C 10.6 °C 1030.7 hPa SE 1.9 km/h 4.8 km/h 64% 0 mm 584 W/m2
10:24 18.1 °C 10.9 °C 1030.7 hPa ESE 6 km/h 16.1 km/h 63% 0 mm 587 W/m2
10:29 18.7 °C 11.1 °C 1030.7 hPa NE 7.2 km/h 19.3 km/h 61.2% 0 mm 612 W/m2
10:34 19.1 °C 10.9 °C 1030.7 hPa NNE 4.3 km/h 12.9 km/h 59% 0 mm 656 W/m2
10:39 18.8 °C 10.4 °C 1030.7 hPa WNW 3.5 km/h 6.4 km/h 58% 0 mm 696 W/m2
10:44 18.8 °C 10.6 °C 1030.7 hPa West 5 km/h 9.7 km/h 59.2% 0 mm 714 W/m2
10:49 18.6 °C 10.8 °C 1030.7 hPa WSW 7.7 km/h 12.9 km/h 60.6% 0 mm 708 W/m2
10:54 18.6 °C 10.8 °C 1030.7 hPa WNW 6 km/h 9.7 km/h 60.6% 0 mm 686 W/m2
10:59 18.6 °C 10.7 °C 1030.7 hPa West 3.9 km/h 9.7 km/h 60% 0 mm 675 W/m2
11:04 18.7 °C 10.4 °C 1030.7 hPa WNW 6.6 km/h 11.3 km/h 58.8% 0 mm 726 W/m2
11:09 18.7 °C 10.1 °C 1030.7 hPa NW 7.1 km/h 12.9 km/h 57.6% 0 mm 714 W/m2
11:14 18.8 °C 10 °C 1030.7 hPa NW 3.9 km/h 12.9 km/h 56.8% 0 mm 747 W/m2
11:19 18.9 °C 9.7 °C 1030.7 hPa NW 6.1 km/h 14.5 km/h 54.8% 0 mm 751 W/m2
11:24 18.9 °C 9.7 °C 1030.7 hPa NNW 3.1 km/h 9.7 km/h 55% 0 mm 714 W/m2
11:29 19 °C 9.7 °C 1030.7 hPa North 6.8 km/h 12.9 km/h 54.6% 0 mm 744 W/m2
11:34 19.2 °C 9.6 °C 1030.7 hPa NW 8.4 km/h 17.7 km/h 53.8% 0 mm 752 W/m2
11:39 19.2 °C 9.6 °C 1030.7 hPa NNW 5.3 km/h 14.5 km/h 53.8% 0 mm 717 W/m2
11:44 19.4 °C 9.4 °C 1030.7 hPa NW 9.3 km/h 19.3 km/h 52.4% 0 mm 735 W/m2
11:49 19.2 °C 9.1 °C 1030.7 hPa NNW 8.5 km/h 19.3 km/h 52% 0 mm 729 W/m2
11:54 19.3 °C 9.1 °C 1030.4 hPa NW 8.4 km/h 16.1 km/h 51.6% 0 mm 731 W/m2
11:59 19.3 °C 9 °C 1030.4 hPa NNW 10.6 km/h 16.1 km/h 51.2% 0 mm 742 W/m2
12:04 19.3 °C 8.9 °C 1030.4 hPa NNW 8 km/h 14.5 km/h 51% 0 mm 761 W/m2
12:09 19.5 °C 9 °C 1030.4 hPa NW 9 km/h 16.1 km/h 50.8% 0 mm 765 W/m2
12:14 19.7 °C 9.1 °C 1030.4 hPa North 6.4 km/h 14.5 km/h 50.2% 0 mm 765 W/m2
12:19 19.8 °C 9.2 °C 1030.4 hPa NNW 8 km/h 12.9 km/h 50% 0 mm 765 W/m2
12:24 20.3 °C 9.2 °C 1030.4 hPa North 2.7 km/h 11.3 km/h 48.8% 0 mm 775 W/m2
12:29 21 °C 9.8 °C 1030.4 hPa ENE 9.2 km/h 17.7 km/h 48.6% 0 mm 775 W/m2
12:34 21.4 °C 9.4 °C 1030.4 hPa NE 10.8 km/h 17.7 km/h 46.2% 0 mm 782 W/m2
12:39 21.8 °C 9.3 °C 1030.4 hPa NNE 4.2 km/h 16.1 km/h 45.2% 0 mm 784 W/m2
12:44 20.9 °C 9.1 °C 1030.4 hPa NNW 10.3 km/h 19.3 km/h 46.8% 0 mm 786 W/m2
12:49 20.4 °C 9.2 °C 1030 hPa WNW 7.2 km/h 14.5 km/h 48.8% 0 mm 788 W/m2
12:54 20.6 °C 9.5 °C 1030 hPa NNE 6.9 km/h 14.5 km/h 49% 0 mm 788 W/m2
12:59 21.2 °C 9.6 °C 1030 hPa NE 7.1 km/h 11.3 km/h 47.6% 0 mm 796 W/m2
13:04 21.9 °C 9.9 °C 1030 hPa NE 5.6 km/h 12.9 km/h 46.4% 0 mm 798 W/m2
13:09 22.2 °C 9.9 °C 1030 hPa NNW 8 km/h 16.1 km/h 45.8% 0 mm 800 W/m2
13:14 21.5 °C 9.7 °C 1030 hPa North 7.7 km/h 19.3 km/h 46.8% 0 mm 800 W/m2
13:19 21.7 °C 9.9 °C 1030 hPa North 4.2 km/h 6.4 km/h 47% 0 mm 805 W/m2
13:24 21.7 °C 10 °C 1030 hPa North 5.3 km/h 16.1 km/h 47.2% 0 mm 784 W/m2
13:29 21.6 °C 9.7 °C 1030 hPa NNE 6.4 km/h 14.5 km/h 46.8% 0 mm 803 W/m2
13:34 21.4 °C 9.5 °C 1030 hPa NNW 10.3 km/h 20.9 km/h 46.6% 0 mm 802 W/m2
13:39 21 °C 9.1 °C 1030 hPa NNE 5.8 km/h 16.1 km/h 46.6% 0 mm 817 W/m2
13:44 21.2 °C 9.5 °C 1029.7 hPa NE 6.1 km/h 17.7 km/h 47.2% 0 mm 807 W/m2
13:49 21.9 °C 9.9 °C 1029.7 hPa North 7.1 km/h 14.5 km/h 46.2% 0 mm 791 W/m2
13:54 22.2 °C 9.7 °C 1029.7 hPa North 7.4 km/h 16.1 km/h 45.2% 0 mm 791 W/m2
13:59 21.7 °C 9.2 °C 1029.7 hPa NNE 8.2 km/h 16.1 km/h 44.8% 0 mm 789 W/m2
14:04 22.1 °C 9.4 °C 1029.7 hPa NE 4.7 km/h 12.9 km/h 44.4% 0 mm 789 W/m2
14:09 22.3 °C 9.3 °C 1029.7 hPa NE 3.9 km/h 12.9 km/h 43.6% 0 mm 791 W/m2
14:14 22.7 °C 10 °C 1029.7 hPa North 5.8 km/h 17.7 km/h 44.6% 0 mm 784 W/m2
14:19 22.2 °C 9.8 °C 1029.3 hPa North 11.9 km/h 20.9 km/h 45.2% 0 mm 780 W/m2
14:24 21.8 °C 9.6 °C 1029.7 hPa NNE 4 km/h 20.9 km/h 45.8% 0 mm 784 W/m2
14:29 22.3 °C 10.1 °C 1029.3 hPa NNW 4.5 km/h 12.9 km/h 45.8% 0 mm 780 W/m2
14:34 22.8 °C 10.2 °C 1029.3 hPa WSW 1.1 km/h 4.8 km/h 44.8% 0 mm 768 W/m2
14:39 23.5 °C 10.3 °C 1029.3 hPa ESE 7.7 km/h 12.9 km/h 43.2% 0 mm 772 W/m2
14:44 22.9 °C 9.8 °C 1029.3 hPa South 5.3 km/h 11.3 km/h 43.4% 0 mm 766 W/m2
14:49 22.8 °C 10.1 °C 1029.3 hPa NE 7.1 km/h 12.9 km/h 44.4% 0 mm 758 W/m2
14:54 23.6 °C 10.4 °C 1029.3 hPa NNE 9.3 km/h 16.1 km/h 43.6% 0 mm 754 W/m2
14:59 23.5 °C 10 °C 1029.3 hPa NE 9.7 km/h 20.9 km/h 42.4% 0 mm 742 W/m2
15:04 23.7 °C 10.2 °C 1029.3 hPa NE 6.3 km/h 12.9 km/h 42.4% 0 mm 742 W/m2
15:09 23.6 °C 9.8 °C 1029.3 hPa SSE 5.1 km/h 16.1 km/h 41.5% 0 mm 726 W/m2
15:14 22.8 °C 9.8 °C 1029 hPa WNW 4.2 km/h 9.7 km/h 43.6% 0 mm 719 W/m2
15:19 23 °C 10.1 °C 1029 hPa North 5.3 km/h 12.9 km/h 44% 0 mm 714 W/m2
15:24 23.3 °C 10.2 °C 1029 hPa NE 5.5 km/h 17.7 km/h 43.6% 0 mm 712 W/m2
15:29 23.8 °C 10.3 °C 1029 hPa NE 9.5 km/h 19.3 km/h 42.6% 0 mm 700 W/m2
15:34 23.8 °C 10.3 °C 1029 hPa North 4.8 km/h 14.5 km/h 42.4% 0 mm 691 W/m2
15:39 23.8 °C 10.1 °C 1029 hPa NNE 2.1 km/h 9.7 km/h 41.8% 0 mm 682 W/m2
15:44 23.3 °C 10.2 °C 1028.7 hPa NNW 8 km/h 17.7 km/h 43.6% 0 mm 680 W/m2
15:49 23.2 °C 10.2 °C 1028.7 hPa NNW 9 km/h 17.7 km/h 43.8% 0 mm 671 W/m2
15:54 23.2 °C 10.4 °C 1028.7 hPa North 6.3 km/h 17.7 km/h 44.4% 0 mm 663 W/m2
15:59 23.2 °C 10.3 °C 1028.7 hPa North 5.5 km/h 12.9 km/h 44% 0 mm 657 W/m2
16:04 23.3 °C 10.1 °C 1028.7 hPa NW 3.5 km/h 8 km/h 43.2% 0 mm 647 W/m2
16:09 23.5 °C 10.4 °C 1028.7 hPa NNW 5.1 km/h 12.9 km/h 43.6% 0 mm 645 W/m2
16:14 23.7 °C 10.1 °C 1028.3 hPa NW 6 km/h 12.9 km/h 42.3% 0 mm 626 W/m2
16:19 23.6 °C 10.2 °C 1028.3 hPa NNE 5 km/h 14.5 km/h 42.8% 0 mm 613 W/m2
16:24 24.2 °C 10.4 °C 1028.3 hPa ENE 3.9 km/h 11.3 km/h 41.8% 0 mm 603 W/m2
16:29 24.8 °C 10.7 °C 1028.3 hPa NNE 5 km/h 11.3 km/h 41% 0 mm 605 W/m2
16:34 24.7 °C 10.5 °C 1028.3 hPa NNE 4 km/h 16.1 km/h 40.6% 0 mm 596 W/m2
16:39 24 °C 10.2 °C 1028.3 hPa NNW 8.5 km/h 20.9 km/h 41.8% 0 mm 578 W/m2
16:44 23.2 °C 9.9 °C 1028.3 hPa NW 3.2 km/h 14.5 km/h 43% 0 mm 568 W/m2
16:49 23.3 °C 10.1 °C 1028.3 hPa NNW 6.8 km/h 12.9 km/h 43.4% 0 mm 557 W/m2
16:54 23.2 °C 9.9 °C 1028.3 hPa North 7.4 km/h 16.1 km/h 43.2% 0 mm 563 W/m2
16:59 23.2 °C 10.1 °C 1028 hPa NNW 2.6 km/h 8 km/h 43.6% 0 mm 538 W/m2
17:04 23.3 °C 10.4 °C 1028 hPa NW 6.1 km/h 16.1 km/h 44% 0 mm 524 W/m2
17:09 23.3 °C 10.5 °C 1028 hPa NNW 7.2 km/h 11.3 km/h 44.4% 0 mm 512 W/m2
17:14 23.3 °C 10.4 °C 1028 hPa North 4.7 km/h 12.9 km/h 44% 0 mm 504 W/m2
17:19 23.7 °C 10.7 °C 1028 hPa NNW 8.4 km/h 16.1 km/h 44% 0 mm 489 W/m2
17:24 23.6 °C 10.6 °C 1028 hPa NNW 6.8 km/h 11.3 km/h 44% 0 mm 476 W/m2
17:29 23.8 °C 10.8 °C 1028 hPa NNE 5 km/h 11.3 km/h 44% 0 mm 468 W/m2
17:34 23.9 °C 10.8 °C 1028 hPa NW 7.2 km/h 11.3 km/h 43.6% 0 mm 455 W/m2
17:39 23.4 °C 10.5 °C 1028 hPa West 4.2 km/h 9.7 km/h 44% 0 mm 434 W/m2
17:44 23.4 °C 10.6 °C 1028 hPa North 7.1 km/h 16.1 km/h 44.2% 0 mm 408 W/m2
17:49 23.4 °C 10.5 °C 1028 hPa North 7.2 km/h 12.9 km/h 44% 0 mm 403 W/m2
17:54 23.4 °C 10.5 °C 1028 hPa WNW 3.1 km/h 11.3 km/h 44% 0 mm 378 W/m2
17:59 23.3 °C 10.7 °C 1028 hPa WNW 3.9 km/h 9.7 km/h 44.8% 0 mm 350 W/m2
18:04 23.6 °C 11.1 °C 1028 hPa West 5.1 km/h 11.3 km/h 45.6% 0 mm 327 W/m2
18:09 23.3 °C 11.3 °C 1027.7 hPa NNW 7.2 km/h 16.1 km/h 46.8% 0 mm 336 W/m2
18:14 22.7 °C 11.2 °C 1027.7 hPa NW 8.4 km/h 16.1 km/h 48.2% 0 mm 297 W/m2
18:19 22.5 °C 11.1 °C 1027.7 hPa NW 8.4 km/h 16.1 km/h 48.6% 0 mm 313 W/m2
18:24 22.6 °C 11.3 °C 1027.7 hPa NNW 7.7 km/h 12.9 km/h 49% 0 mm 313 W/m2
18:29 22.7 °C 11.1 °C 1027.7 hPa NW 8 km/h 17.7 km/h 48% 0 mm 301 W/m2
18:34 22.7 °C 11.1 °C 1027.7 hPa WNW 6.6 km/h 12.9 km/h 48.2% 0 mm 294 W/m2
18:39 22.8 °C 11.2 °C 1027.7 hPa NNW 5.6 km/h 12.9 km/h 48% 0 mm 279 W/m2
18:44 22.7 °C 11.1 °C 1027.7 hPa WNW 7.9 km/h 14.5 km/h 48% 0 mm 258 W/m2
18:49 22.3 °C 10.9 °C 1027.7 hPa NW 8 km/h 14.5 km/h 48.4% 0 mm 248 W/m2
18:54 22.3 °C 11.1 °C 1027.7 hPa NW 7.9 km/h 14.5 km/h 49% 0 mm 239 W/m2
18:59 22.3 °C 10.9 °C 1027.7 hPa NW 8.5 km/h 11.3 km/h 48.6% 0 mm 216 W/m2
19:04 22.1 °C 10.9 °C 1027.7 hPa NW 7.2 km/h 17.7 km/h 49% 0 mm 200 W/m2
19:09 21.9 °C 10.8 °C 1027.7 hPa NW 9.7 km/h 17.7 km/h 49% 0 mm 163 W/m2
19:14 21.9 °C 10.9 °C 1027.7 hPa NNW 6 km/h 11.3 km/h 49.8% 0 mm 171 W/m2
19:19 22.1 °C 11.1 °C 1027.7 hPa NW 5.8 km/h 12.9 km/h 49.4% 0 mm 162 W/m2
19:24 22.2 °C 11.6 °C 1027.7 hPa NW 5.8 km/h 11.3 km/h 51% 0 mm 149 W/m2
19:29 22.2 °C 12.2 °C 1027.7 hPa WNW 5.8 km/h 16.1 km/h 53% 0 mm 134 W/m2
19:34 21.8 °C 12.1 °C 1027.7 hPa WNW 6.4 km/h 16.1 km/h 53.8% 0 mm 121 W/m2
19:39 21.5 °C 12.2 °C 1027.7 hPa WNW 7.9 km/h 12.9 km/h 55.4% 0 mm 102 W/m2
19:44 21.2 °C 12.3 °C 1027.7 hPa WNW 8.2 km/h 14.5 km/h 57% 0 mm 93 W/m2
19:48 21 °C 12.4 °C 1028 hPa NW 8.5 km/h 16.1 km/h 58% 0 mm 76 W/m2
19:54 20.8 °C 12.4 °C 1028 hPa NW 6.1 km/h 16.1 km/h 58.8% 0 mm 69 W/m2
19:59 20.7 °C 12.4 °C 1028 hPa WNW 8.5 km/h 12.9 km/h 59% 0 mm 63 W/m2
20:04 20.7 °C 12.7 °C 1028 hPa West 5.8 km/h 11.3 km/h 60% 0 mm 54 W/m2
20:09 20.5 °C 12.7 °C 1028 hPa WNW 7.6 km/h 12.9 km/h 60.8% 0 mm 42 W/m2
20:14 20.3 °C 12.7 °C 1028 hPa WNW 5.5 km/h 11.3 km/h 61.8% 0 mm 33 W/m2
20:19 19.9 °C 12.7 °C 1028 hPa WNW 8.4 km/h 14.5 km/h 62.8% 0 mm 21 W/m2
20:24 19.6 °C 12.6 °C 1028.3 hPa WNW 6.6 km/h 11.3 km/h 63.8% 0 mm 12 W/m2
20:29 19.3 °C 12.6 °C 1028.3 hPa West 5.1 km/h 9.7 km/h 64.8% 0 mm 11 W/m2
20:34 19.1 °C 12.6 °C 1028.3 hPa West 7.2 km/h 12.9 km/h 65.8% 0 mm 9 W/m2
20:39 18.9 °C 12.5 °C 1028.3 hPa West 6.1 km/h 9.7 km/h 66.6% 0 mm 7 W/m2
20:44 18.7 °C 12.6 °C 1028.3 hPa WNW 6.9 km/h 9.7 km/h 67.4% 0 mm 5 W/m2
20:49 18.6 °C 12.6 °C 1028.3 hPa WNW 4.2 km/h 8 km/h 68% 0 mm 5 W/m2
20:54 18.4 °C 12.5 °C 1028.3 hPa West 6 km/h 11.3 km/h 68.6% 0 mm 0 W/m2
20:59 18.3 °C 12.6 °C 1028.3 hPa West 5.3 km/h 9.7 km/h 69.4% 0 mm 0 W/m2
21:04 18.2 °C 12.6 °C 1028.3 hPa WNW 6.1 km/h 9.7 km/h 70% 0 mm 0 W/m2
21:08 18 °C 12.7 °C 1028.7 hPa WNW 5.6 km/h 9.7 km/h 70.8% 0 mm 0 W/m2
21:14 17.8 °C 12.7 °C 1028.7 hPa WNW 5.3 km/h 11.3 km/h 71.4% 0 mm 0 W/m2
21:19 17.8 °C 12.7 °C 1028.7 hPa WNW 6 km/h 8 km/h 72% 0 mm 0 W/m2
21:24 17.7 °C 12.7 °C 1028.7 hPa WNW 5.6 km/h 9.7 km/h 72.6% 0 mm 0 W/m2
21:29 17.6 °C 12.8 °C 1028.7 hPa WNW 4.3 km/h 9.7 km/h 73.2% 0 mm 0 W/m2
21:34 17.5 °C 12.8 °C 1028.7 hPa WNW 3.5 km/h 6.4 km/h 74% 0 mm 0 W/m2
21:39 17.4 °C 12.7 °C 1028.7 hPa WNW 2.7 km/h 6.4 km/h 74% 0 mm 0 W/m2
21:44 17.3 °C 12.7 °C 1028.7 hPa WNW 2.6 km/h 6.4 km/h 74.6% 0 mm 0 W/m2
21:49 17.3 °C 12.8 °C 1028.7 hPa WNW 1.4 km/h 4.8 km/h 75% 0 mm 0 W/m2
21:54 17.2 °C 12.7 °C 1028.7 hPa WNW 1.6 km/h 4.8 km/h 75% 0 mm 0 W/m2
21:59 17.1 °C 12.8 °C 1028.7 hPa WNW 0.6 km/h 3.2 km/h 76% 0 mm 0 W/m2
22:04 17 °C 12.7 °C 1028.7 hPa WNW 1.4 km/h 3.2 km/h 76% 0 mm 0 W/m2
22:09 16.8 °C 12.6 °C 1028.7 hPa WNW 1.9 km/h 3.2 km/h 76% 0 mm 0 W/m2
22:14 16.8 °C 12.6 °C 1028.7 hPa WNW 1.3 km/h 4.8 km/h 76.8% 0 mm 0 W/m2
22:19 16.7 °C 12.6 °C 1028.7 hPa WNW 2.1 km/h 4.8 km/h 77% 0 mm 0 W/m2
22:24 16.5 °C 12.5 °C 1028.7 hPa WNW 1.9 km/h 4.8 km/h 77% 0 mm 0 W/m2
22:29 16.4 °C 12.4 °C 1028.7 hPa WNW 0.6 km/h 3.2 km/h 77% 0 mm 0 W/m2
22:34 16.3 °C 12.3 °C 1028.7 hPa WNW 0.8 km/h 3.2 km/h 77% 0 mm 0 W/m2
22:39 16.3 °C 12.3 °C 1028.7 hPa WNW 0.6 km/h 3.2 km/h 77% 0 mm 0 W/m2
22:44 16.2 °C 12.2 °C 1028.7 hPa WNW 1.3 km/h 3.2 km/h 77% 0 mm 0 W/m2
22:49 16.1 °C 12.1 °C 1028.7 hPa WNW 0.6 km/h 1.6 km/h 77% 0 mm 0 W/m2
22:54 15.9 °C 11.9 °C 1028.3 hPa Calm   1.6 km/h 77% 0 mm 0 W/m2
22:59 15.8 °C 11.8 °C 1028.7 hPa Calm     77% 0 mm 0 W/m2
23:04 15.8 °C 11.8 °C 1028.7 hPa Calm   1.6 km/h 77% 0 mm 0 W/m2
23:09 15.8 °C 11.8 °C 1028.7 hPa WNW 1.1 km/h 3.2 km/h 77% 0 mm 0 W/m2
23:14 15.7 °C 11.7 °C 1028.7 hPa WNW 0.3 km/h 1.6 km/h 77% 0 mm 0 W/m2
23:19 15.7 °C 11.7 °C 1028.7 hPa Calm   1.6 km/h 77% 0 mm 0 W/m2
23:24 15.7 °C 11.7 °C 1028.7 hPa WNW 0.3 km/h 3.2 km/h 77% 0 mm 0 W/m2
23:29 15.6 °C 11.6 °C 1028.7 hPa Calm   1.6 km/h 77% 0 mm 0 W/m2
23:34 15.6 °C 11.6 °C 1028.7 hPa WNW 0.8 km/h 3.2 km/h 77% 0 mm 0 W/m2
23:39 15.4 °C 11.4 °C 1028.3 hPa WNW 0.3 km/h 3.2 km/h 77% 0 mm 0 W/m2
23:44 15.4 °C 11.4 °C 1028.7 hPa Calm   1.6 km/h 77.2% 0 mm 0 W/m2
23:49 15.3 °C 11.6 °C 1028.7 hPa WNW 0.6 km/h 3.2 km/h 78% 0 mm 0 W/m2
23:54 15.3 °C 11.6 °C 1028.7 hPa WNW 2.1 km/h 3.2 km/h 78.8% 0 mm 0 W/m2
23:59 15.1 °C 11.7 °C 1028.3 hPa WNW 1.3 km/h 3.2 km/h 79.6% 0 mm 0 W/m2
Bath Spa Weather
Compliments of Weather Underground - 2 mb